sensor_id;sensor_type;location;lat;lon;timestamp;P1;durP1;ratioP1;P2;durP2;ratioP2
19905;SDS011;10115;50.906;4.438;2023-08-08T00:01:49;5.00;;;4.60;;
19905;SDS011;10115;50.906;4.438;2023-08-08T00:04:15;4.97;;;4.77;;
19905;SDS011;10115;50.906;4.438;2023-08-08T00:06:41;6.20;;;5.43;;
19905;SDS011;10115;50.906;4.438;2023-08-08T00:09:06;5.80;;;5.20;;
19905;SDS011;10115;50.906;4.438;2023-08-08T00:11:32;4.57;;;4.37;;
19905;SDS011;10115;50.906;4.438;2023-08-08T00:13:58;4.50;;;4.30;;
19905;SDS011;10115;50.906;4.438;2023-08-08T00:16:24;5.20;;;4.57;;
19905;SDS011;10115;50.906;4.438;2023-08-08T00:18:50;4.60;;;4.30;;
19905;SDS011;10115;50.906;4.438;2023-08-08T00:21:18;5.73;;;5.20;;
19905;SDS011;10115;50.906;4.438;2023-08-08T00:23:47;5.20;;;4.80;;
19905;SDS011;10115;50.906;4.438;2023-08-08T00:26:13;5.00;;;4.47;;
19905;SDS011;10115;50.906;4.438;2023-08-08T00:28:38;5.33;;;5.03;;
19905;SDS011;10115;50.906;4.438;2023-08-08T00:31:04;4.60;;;4.30;;
19905;SDS011;10115;50.906;4.438;2023-08-08T00:33:30;5.17;;;4.87;;
19905;SDS011;10115;50.906;4.438;2023-08-08T00:35:55;4.60;;;4.30;;
19905;SDS011;10115;50.906;4.438;2023-08-08T00:38:21;5.43;;;4.93;;
19905;SDS011;10115;50.906;4.438;2023-08-08T00:40:47;5.63;;;5.23;;
19905;SDS011;10115;50.906;4.438;2023-08-08T00:43:12;4.40;;;4.10;;
19905;SDS011;10115;50.906;4.438;2023-08-08T00:45:40;6.70;;;5.57;;
19905;SDS011;10115;50.906;4.438;2023-08-08T00:48:07;5.23;;;4.77;;
19905;SDS011;10115;50.906;4.438;2023-08-08T00:50:34;5.00;;;4.70;;
19905;SDS011;10115;50.906;4.438;2023-08-08T00:53:01;5.10;;;4.80;;
19905;SDS011;10115;50.906;4.438;2023-08-08T00:55:28;6.90;;;5.47;;
19905;SDS011;10115;50.906;4.438;2023-08-08T00:57:53;5.20;;;4.77;;
19905;SDS011;10115;50.906;4.438;2023-08-08T01:00:19;4.80;;;4.50;;
19905;SDS011;10115;50.906;4.438;2023-08-08T01:02:45;5.17;;;4.80;;
19905;SDS011;10115;50.906;4.438;2023-08-08T01:05:10;5.10;;;4.70;;
19905;SDS011;10115;50.906;4.438;2023-08-08T01:10:29;10.87;;;5.47;;
19905;SDS011;10115;50.906;4.438;2023-08-08T01:13:00;5.23;;;4.93;;
19905;SDS011;10115;50.906;4.438;2023-08-08T01:15:30;4.20;;;4.10;;
19905;SDS011;10115;50.906;4.438;2023-08-08T01:18:01;8.97;;;5.77;;
19905;SDS011;10115;50.906;4.438;2023-08-08T01:20:31;6.10;;;5.60;;
19905;SDS011;10115;50.906;4.438;2023-08-08T01:25:30;5.73;;;5.30;;
19905;SDS011;10115;50.906;4.438;2023-08-08T01:27:56;6.23;;;5.53;;
19905;SDS011;10115;50.906;4.438;2023-08-08T01:30:22;6.93;;;5.87;;
19905;SDS011;10115;50.906;4.438;2023-08-08T01:32:47;5.47;;;5.07;;
19905;SDS011;10115;50.906;4.438;2023-08-08T01:35:13;7.17;;;5.77;;
19905;SDS011;10115;50.906;4.438;2023-08-08T01:37:49;5.83;;;5.23;;
19905;SDS011;10115;50.906;4.438;2023-08-08T01:40:17;5.40;;;5.00;;
19905;SDS011;10115;50.906;4.438;2023-08-08T01:42:45;5.40;;;5.00;;
19905;SDS011;10115;50.906;4.438;2023-08-08T01:45:12;5.90;;;5.40;;
19905;SDS011;10115;50.906;4.438;2023-08-08T01:47:39;10.77;;;5.80;;
19905;SDS011;10115;50.906;4.438;2023-08-08T01:50:06;5.23;;;4.93;;
19905;SDS011;10115;50.906;4.438;2023-08-08T01:52:33;5.50;;;5.10;;
19905;SDS011;10115;50.906;4.438;2023-08-08T01:54:59;6.03;;;5.53;;
19905;SDS011;10115;50.906;4.438;2023-08-08T01:57:25;6.27;;;5.23;;
19905;SDS011;10115;50.906;4.438;2023-08-08T01:59:51;5.37;;;5.07;;
19905;SDS011;10115;50.906;4.438;2023-08-08T02:02:17;6.10;;;5.60;;
19905;SDS011;10115;50.906;4.438;2023-08-08T02:04:43;6.57;;;4.97;;
19905;SDS011;10115;50.906;4.438;2023-08-08T02:07:08;5.10;;;4.70;;
19905;SDS011;10115;50.906;4.438;2023-08-08T02:09:34;7.43;;;4.67;;
19905;SDS011;10115;50.906;4.438;2023-08-08T02:12:00;6.23;;;5.70;;
19905;SDS011;10115;50.906;4.438;2023-08-08T02:14:25;5.57;;;5.17;;
19905;SDS011;10115;50.906;4.438;2023-08-08T02:16:51;6.17;;;5.53;;
19905;SDS011;10115;50.906;4.438;2023-08-08T02:19:17;7.30;;;5.50;;
19905;SDS011;10115;50.906;4.438;2023-08-08T02:21:42;5.53;;;5.20;;
19905;SDS011;10115;50.906;4.438;2023-08-08T02:24:08;17.17;;;6.30;;
19905;SDS011;10115;50.906;4.438;2023-08-08T02:26:34;9.03;;;5.00;;
19905;SDS011;10115;50.906;4.438;2023-08-08T02:28:59;5.60;;;4.57;;
19905;SDS011;10115;50.906;4.438;2023-08-08T02:31:25;12.73;;;6.40;;
19905;SDS011;10115;50.906;4.438;2023-08-08T02:33:51;12.17;;;6.83;;
19905;SDS011;10115;50.906;4.438;2023-08-08T02:36:17;5.13;;;4.83;;
19905;SDS011;10115;50.906;4.438;2023-08-08T02:38:43;5.47;;;4.97;;
19905;SDS011;10115;50.906;4.438;2023-08-08T02:41:09;7.13;;;5.43;;
19905;SDS011;10115;50.906;4.438;2023-08-08T02:43:35;7.27;;;6.10;;
19905;SDS011;10115;50.906;4.438;2023-08-08T02:46:00;5.83;;;5.40;;
19905;SDS011;10115;50.906;4.438;2023-08-08T02:48:26;6.33;;;5.73;;
19905;SDS011;10115;50.906;4.438;2023-08-08T02:50:54;6.80;;;6.20;;
19905;SDS011;10115;50.906;4.438;2023-08-08T02:53:19;6.30;;;5.63;;
19905;SDS011;10115;50.906;4.438;2023-08-08T02:55:45;6.33;;;5.83;;
19905;SDS011;10115;50.906;4.438;2023-08-08T02:58:11;7.50;;;6.03;;
19905;SDS011;10115;50.906;4.438;2023-08-08T03:00:37;5.83;;;5.43;;
19905;SDS011;10115;50.906;4.438;2023-08-08T03:03:03;5.43;;;5.03;;
19905;SDS011;10115;50.906;4.438;2023-08-08T03:05:28;6.60;;;5.73;;
19905;SDS011;10115;50.906;4.438;2023-08-08T03:07:54;10.10;;;5.67;;
19905;SDS011;10115;50.906;4.438;2023-08-08T03:10:20;8.73;;;6.97;;
19905;SDS011;10115;50.906;4.438;2023-08-08T03:12:45;6.77;;;4.97;;
19905;SDS011;10115;50.906;4.438;2023-08-08T03:15:11;8.10;;;6.57;;
19905;SDS011;10115;50.906;4.438;2023-08-08T03:17:37;6.63;;;5.90;;
19905;SDS011;10115;50.906;4.438;2023-08-08T03:20:03;6.60;;;6.10;;
19905;SDS011;10115;50.906;4.438;2023-08-08T03:22:31;6.97;;;5.53;;
19905;SDS011;10115;50.906;4.438;2023-08-08T03:24:56;5.83;;;4.90;;
19905;SDS011;10115;50.906;4.438;2023-08-08T03:27:23;11.30;;;6.13;;
19905;SDS011;10115;50.906;4.438;2023-08-08T03:29:49;7.43;;;5.57;;
19905;SDS011;10115;50.906;4.438;2023-08-08T03:32:15;7.33;;;5.53;;
19905;SDS011;10115;50.906;4.438;2023-08-08T03:34:41;7.07;;;6.37;;
19905;SDS011;10115;50.906;4.438;2023-08-08T03:37:07;14.77;;;5.93;;
19905;SDS011;10115;50.906;4.438;2023-08-08T03:39:32;5.13;;;4.63;;
19905;SDS011;10115;50.906;4.438;2023-08-08T03:41:58;6.13;;;5.07;;
19905;SDS011;10115;50.906;4.438;2023-08-08T03:44:23;10.63;;;6.77;;
19905;SDS011;10115;50.906;4.438;2023-08-08T03:46:49;6.23;;;5.67;;
19905;SDS011;10115;50.906;4.438;2023-08-08T03:49:16;10.10;;;5.00;;
19905;SDS011;10115;50.906;4.438;2023-08-08T03:51:41;6.70;;;6.20;;
19905;SDS011;10115;50.906;4.438;2023-08-08T03:54:07;9.73;;;6.33;;
19905;SDS011;10115;50.906;4.438;2023-08-08T03:56:33;5.93;;;5.23;;
19905;SDS011;10115;50.906;4.438;2023-08-08T03:58:59;6.20;;;5.60;;
19905;SDS011;10115;50.906;4.438;2023-08-08T04:01:24;7.03;;;6.57;;
19905;SDS011;10115;50.906;4.438;2023-08-08T04:03:50;13.50;;;7.07;;
19905;SDS011;10115;50.906;4.438;2023-08-08T04:06:16;5.90;;;5.50;;
19905;SDS011;10115;50.906;4.438;2023-08-08T04:08:41;6.50;;;6.03;;
19905;SDS011;10115;50.906;4.438;2023-08-08T04:11:07;8.97;;;7.37;;
19905;SDS011;10115;50.906;4.438;2023-08-08T04:13:33;6.83;;;6.23;;
19905;SDS011;10115;50.906;4.438;2023-08-08T04:15:58;6.07;;;5.57;;
19905;SDS011;10115;50.906;4.438;2023-08-08T04:18:31;12.43;;;6.87;;
19905;SDS011;10115;50.906;4.438;2023-08-08T04:20:56;8.17;;;6.00;;
19905;SDS011;10115;50.906;4.438;2023-08-08T04:23:22;7.73;;;5.43;;
19905;SDS011;10115;50.906;4.438;2023-08-08T04:25:50;6.47;;;5.83;;
19905;SDS011;10115;50.906;4.438;2023-08-08T04:28:17;6.77;;;4.93;;
19905;SDS011;10115;50.906;4.438;2023-08-08T04:30:42;7.53;;;6.83;;
19905;SDS011;10115;50.906;4.438;2023-08-08T04:33:08;8.83;;;6.13;;
19905;SDS011;10115;50.906;4.438;2023-08-08T04:35:34;6.67;;;6.17;;
19905;SDS011;10115;50.906;4.438;2023-08-08T04:38:00;17.13;;;6.03;;
19905;SDS011;10115;50.906;4.438;2023-08-08T04:40:26;6.33;;;5.73;;
19905;SDS011;10115;50.906;4.438;2023-08-08T04:42:52;6.37;;;5.77;;
19905;SDS011;10115;50.906;4.438;2023-08-08T04:45:18;6.60;;;5.57;;
19905;SDS011;10115;50.906;4.438;2023-08-08T04:47:44;9.90;;;6.87;;
19905;SDS011;10115;50.906;4.438;2023-08-08T04:50:10;5.30;;;5.00;;
19905;SDS011;10115;50.906;4.438;2023-08-08T04:52:35;4.93;;;4.63;;
19905;SDS011;10115;50.906;4.438;2023-08-08T04:55:01;6.23;;;5.63;;
19905;SDS011;10115;50.906;4.438;2023-08-08T04:57:27;11.67;;;7.17;;
19905;SDS011;10115;50.906;4.438;2023-08-08T04:59:52;6.23;;;5.73;;
19905;SDS011;10115;50.906;4.438;2023-08-08T05:02:18;5.63;;;5.30;;
19905;SDS011;10115;50.906;4.438;2023-08-08T05:04:44;5.60;;;5.10;;
19905;SDS011;10115;50.906;4.438;2023-08-08T05:07:09;10.13;;;6.37;;
19905;SDS011;10115;50.906;4.438;2023-08-08T05:09:35;6.73;;;6.17;;
19905;SDS011;10115;50.906;4.438;2023-08-08T05:12:00;10.53;;;7.20;;
19905;SDS011;10115;50.906;4.438;2023-08-08T05:14:27;7.60;;;6.13;;
19905;SDS011;10115;50.906;4.438;2023-08-08T05:16:52;12.73;;;6.67;;
19905;SDS011;10115;50.906;4.438;2023-08-08T05:19:18;6.73;;;6.00;;
19905;SDS011;10115;50.906;4.438;2023-08-08T05:21:44;6.87;;;6.13;;
19905;SDS011;10115;50.906;4.438;2023-08-08T05:24:09;7.33;;;6.83;;
19905;SDS011;10115;50.906;4.438;2023-08-08T05:26:35;7.70;;;5.53;;
19905;SDS011;10115;50.906;4.438;2023-08-08T05:29:00;6.10;;;5.30;;
19905;SDS011;10115;50.906;4.438;2023-08-08T05:31:26;5.80;;;5.40;;
19905;SDS011;10115;50.906;4.438;2023-08-08T05:33:52;6.87;;;6.00;;
19905;SDS011;10115;50.906;4.438;2023-08-08T05:36:17;16.83;;;5.43;;
19905;SDS011;10115;50.906;4.438;2023-08-08T05:38:43;11.03;;;5.47;;
19905;SDS011;10115;50.906;4.438;2023-08-08T05:41:09;8.70;;;6.10;;
19905;SDS011;10115;50.906;4.438;2023-08-08T05:43:34;6.63;;;5.87;;
19905;SDS011;10115;50.906;4.438;2023-08-08T05:46:01;5.83;;;4.87;;
19905;SDS011;10115;50.906;4.438;2023-08-08T05:48:27;5.13;;;4.83;;
19905;SDS011;10115;50.906;4.438;2023-08-08T05:50:53;7.80;;;5.73;;
19905;SDS011;10115;50.906;4.438;2023-08-08T05:53:18;6.80;;;5.13;;
19905;SDS011;10115;50.906;4.438;2023-08-08T05:55:44;6.27;;;5.67;;
19905;SDS011;10115;50.906;4.438;2023-08-08T05:58:10;11.27;;;5.73;;
19905;SDS011;10115;50.906;4.438;2023-08-08T06:00:35;10.37;;;5.40;;
19905;SDS011;10115;50.906;4.438;2023-08-08T06:03:01;6.57;;;5.13;;
19905;SDS011;10115;50.906;4.438;2023-08-08T06:05:27;14.43;;;5.90;;
19905;SDS011;10115;50.906;4.438;2023-08-08T06:07:53;8.33;;;6.97;;
19905;SDS011;10115;50.906;4.438;2023-08-08T06:10:20;6.10;;;5.67;;
19905;SDS011;10115;50.906;4.438;2023-08-08T06:12:46;23.90;;;5.80;;
19905;SDS011;10115;50.906;4.438;2023-08-08T06:15:12;5.73;;;4.43;;
19905;SDS011;10115;50.906;4.438;2023-08-08T06:17:38;5.77;;;5.30;;
19905;SDS011;10115;50.906;4.438;2023-08-08T06:20:04;6.50;;;5.83;;
19905;SDS011;10115;50.906;4.438;2023-08-08T06:22:31;7.27;;;5.30;;
19905;SDS011;10115;50.906;4.438;2023-08-08T06:24:57;9.13;;;4.47;;
19905;SDS011;10115;50.906;4.438;2023-08-08T06:27:23;9.03;;;5.90;;
19905;SDS011;10115;50.906;4.438;2023-08-08T06:29:48;6.33;;;5.70;;
19905;SDS011;10115;50.906;4.438;2023-08-08T06:32:14;5.23;;;4.87;;
19905;SDS011;10115;50.906;4.438;2023-08-08T06:34:40;10.67;;;4.80;;
19905;SDS011;10115;50.906;4.438;2023-08-08T06:37:05;4.77;;;4.53;;
19905;SDS011;10115;50.906;4.438;2023-08-08T06:39:31;7.23;;;5.37;;
19905;SDS011;10115;50.906;4.438;2023-08-08T06:41:57;5.90;;;4.50;;
19905;SDS011;10115;50.906;4.438;2023-08-08T06:44:22;4.03;;;3.83;;
19905;SDS011;10115;50.906;4.438;2023-08-08T06:46:48;4.87;;;4.47;;
19905;SDS011;10115;50.906;4.438;2023-08-08T06:49:14;5.30;;;4.37;;
19905;SDS011;10115;50.906;4.438;2023-08-08T06:51:39;8.37;;;5.07;;
19905;SDS011;10115;50.906;4.438;2023-08-08T06:54:05;4.60;;;4.20;;
19905;SDS011;10115;50.906;4.438;2023-08-08T06:56:32;4.63;;;4.43;;
19905;SDS011;10115;50.906;4.438;2023-08-08T06:58:58;11.07;;;5.13;;
19905;SDS011;10115;50.906;4.438;2023-08-08T07:01:24;6.37;;;4.90;;
19905;SDS011;10115;50.906;4.438;2023-08-08T07:03:49;4.97;;;4.63;;
19905;SDS011;10115;50.906;4.438;2023-08-08T07:06:17;3.77;;;3.57;;
19905;SDS011;10115;50.906;4.438;2023-08-08T07:08:43;10.03;;;4.70;;
19905;SDS011;10115;50.906;4.438;2023-08-08T07:11:08;9.57;;;4.50;;
19905;SDS011;10115;50.906;4.438;2023-08-08T07:13:34;9.17;;;5.70;;
19905;SDS011;10115;50.906;4.438;2023-08-08T07:16:00;6.47;;;4.90;;
19905;SDS011;10115;50.906;4.438;2023-08-08T07:18:25;7.27;;;5.17;;
19905;SDS011;10115;50.906;4.438;2023-08-08T07:20:51;8.97;;;5.53;;
19905;SDS011;10115;50.906;4.438;2023-08-08T07:23:17;5.37;;;4.50;;
19905;SDS011;10115;50.906;4.438;2023-08-08T07:25:43;7.40;;;5.87;;
19905;SDS011;10115;50.906;4.438;2023-08-08T07:28:10;9.57;;;5.23;;
19905;SDS011;10115;50.906;4.438;2023-08-08T07:30:35;5.00;;;4.50;;
19905;SDS011;10115;50.906;4.438;2023-08-08T07:33:01;10.27;;;6.37;;
19905;SDS011;10115;50.906;4.438;2023-08-08T07:35:27;5.27;;;4.87;;
19905;SDS011;10115;50.906;4.438;2023-08-08T07:37:52;13.43;;;5.07;;
19905;SDS011;10115;50.906;4.438;2023-08-08T07:40:19;5.50;;;5.03;;
19905;SDS011;10115;50.906;4.438;2023-08-08T07:42:46;4.60;;;4.33;;
19905;SDS011;10115;50.906;4.438;2023-08-08T07:45:12;8.90;;;7.07;;
19905;SDS011;10115;50.906;4.438;2023-08-08T07:47:38;10.60;;;5.47;;
19905;SDS011;10115;50.906;4.438;2023-08-08T07:50:04;5.77;;;4.70;;
19905;SDS011;10115;50.906;4.438;2023-08-08T07:52:33;5.67;;;5.20;;
19905;SDS011;10115;50.906;4.438;2023-08-08T07:54:59;7.47;;;5.00;;
19905;SDS011;10115;50.906;4.438;2023-08-08T07:57:26;5.10;;;4.80;;
19905;SDS011;10115;50.906;4.438;2023-08-08T07:59:52;7.17;;;6.47;;
19905;SDS011;10115;50.906;4.438;2023-08-08T08:02:18;5.83;;;4.53;;
19905;SDS011;10115;50.906;4.438;2023-08-08T08:04:43;7.70;;;5.73;;
19905;SDS011;10115;50.906;4.438;2023-08-08T08:07:09;5.47;;;5.07;;
19905;SDS011;10115;50.906;4.438;2023-08-08T08:09:35;6.40;;;5.57;;
19905;SDS011;10115;50.906;4.438;2023-08-08T08:12:00;4.70;;;4.40;;
19905;SDS011;10115;50.906;4.438;2023-08-08T08:14:26;6.37;;;5.43;;
19905;SDS011;10115;50.906;4.438;2023-08-08T08:16:52;11.53;;;6.13;;
19905;SDS011;10115;50.906;4.438;2023-08-08T08:19:19;14.17;;;6.37;;
19905;SDS011;10115;50.906;4.438;2023-08-08T08:21:45;7.43;;;5.73;;
19905;SDS011;10115;50.906;4.438;2023-08-08T08:24:11;5.07;;;4.77;;
19905;SDS011;10115;50.906;4.438;2023-08-08T08:26:36;7.93;;;5.53;;
19905;SDS011;10115;50.906;4.438;2023-08-08T08:29:02;7.43;;;5.30;;
19905;SDS011;10115;50.906;4.438;2023-08-08T08:31:28;8.57;;;5.30;;
19905;SDS011;10115;50.906;4.438;2023-08-08T08:33:54;6.77;;;5.10;;
19905;SDS011;10115;50.906;4.438;2023-08-08T08:36:20;6.97;;;6.23;;
19905;SDS011;10115;50.906;4.438;2023-08-08T08:38:46;7.17;;;5.20;;
19905;SDS011;10115;50.906;4.438;2023-08-08T08:41:14;8.87;;;4.83;;
19905;SDS011;10115;50.906;4.438;2023-08-08T08:43:44;17.03;;;5.23;;
19905;SDS011;10115;50.906;4.438;2023-08-08T08:46:10;4.83;;;4.53;;
19905;SDS011;10115;50.906;4.438;2023-08-08T08:48:38;9.30;;;4.90;;
19905;SDS011;10115;50.906;4.438;2023-08-08T08:51:04;7.20;;;5.17;;
19905;SDS011;10115;50.906;4.438;2023-08-08T08:53:29;15.33;;;5.40;;
19905;SDS011;10115;50.906;4.438;2023-08-08T08:55:56;7.53;;;5.23;;
19905;SDS011;10115;50.906;4.438;2023-08-08T08:58:22;4.37;;;4.17;;
19905;SDS011;10115;50.906;4.438;2023-08-08T09:00:49;8.87;;;5.10;;
19905;SDS011;10115;50.906;4.438;2023-08-08T09:03:17;18.10;;;4.57;;
19905;SDS011;10115;50.906;4.438;2023-08-08T09:05:42;11.40;;;5.00;;
19905;SDS011;10115;50.906;4.438;2023-08-08T09:08:10;7.53;;;5.50;;
19905;SDS011;10115;50.906;4.438;2023-08-08T09:10:37;5.53;;;4.90;;
19905;SDS011;10115;50.906;4.438;2023-08-08T09:13:03;12.90;;;5.23;;
19905;SDS011;10115;50.906;4.438;2023-08-08T09:15:30;5.47;;;5.17;;
19905;SDS011;10115;50.906;4.438;2023-08-08T09:17:56;8.83;;;4.80;;
19905;SDS011;10115;50.906;4.438;2023-08-08T09:20:22;7.27;;;4.87;;
19905;SDS011;10115;50.906;4.438;2023-08-08T09:22:47;5.37;;;5.00;;
19905;SDS011;10115;50.906;4.438;2023-08-08T09:25:13;5.70;;;4.60;;
19905;SDS011;10115;50.906;4.438;2023-08-08T09:27:40;11.73;;;5.13;;
19905;SDS011;10115;50.906;4.438;2023-08-08T09:30:07;16.87;;;5.20;;
19905;SDS011;10115;50.906;4.438;2023-08-08T09:32:34;5.57;;;4.60;;
19905;SDS011;10115;50.906;4.438;2023-08-08T09:35:00;5.10;;;4.70;;
19905;SDS011;10115;50.906;4.438;2023-08-08T09:37:28;5.43;;;4.67;;
19905;SDS011;10115;50.906;4.438;2023-08-08T09:39:57;5.17;;;4.80;;
19905;SDS011;10115;50.906;4.438;2023-08-08T09:42:24;5.20;;;4.77;;
19905;SDS011;10115;50.906;4.438;2023-08-08T09:44:51;6.50;;;5.23;;
19905;SDS011;10115;50.906;4.438;2023-08-08T09:47:17;4.90;;;4.60;;
19905;SDS011;10115;50.906;4.438;2023-08-08T09:49:43;5.20;;;4.83;;
19905;SDS011;10115;50.906;4.438;2023-08-08T09:52:09;6.57;;;4.57;;
19905;SDS011;10115;50.906;4.438;2023-08-08T09:54:36;7.13;;;5.50;;
19905;SDS011;10115;50.906;4.438;2023-08-08T09:57:03;4.90;;;4.60;;
19905;SDS011;10115;50.906;4.438;2023-08-08T09:59:31;5.17;;;4.87;;
19905;SDS011;10115;50.906;4.438;2023-08-08T10:01:57;6.13;;;4.63;;
19905;SDS011;10115;50.906;4.438;2023-08-08T10:04:23;5.27;;;4.87;;
19905;SDS011;10115;50.906;4.438;2023-08-08T10:06:49;7.13;;;4.30;;
19905;SDS011;10115;50.906;4.438;2023-08-08T10:09:15;5.43;;;4.57;;
19905;SDS011;10115;50.906;4.438;2023-08-08T10:11:41;4.83;;;4.53;;
19905;SDS011;10115;50.906;4.438;2023-08-08T10:14:09;4.43;;;4.13;;
19905;SDS011;10115;50.906;4.438;2023-08-08T10:16:39;5.07;;;4.67;;
19905;SDS011;10115;50.906;4.438;2023-08-08T10:19:05;4.47;;;4.07;;
19905;SDS011;10115;50.906;4.438;2023-08-08T10:21:34;4.53;;;4.23;;
19905;SDS011;10115;50.906;4.438;2023-08-08T10:24:10;6.03;;;5.23;;
19905;SDS011;10115;50.906;4.438;2023-08-08T10:26:52;4.37;;;4.17;;
19905;SDS011;10115;50.906;4.438;2023-08-08T10:29:19;4.80;;;4.50;;
19905;SDS011;10115;50.906;4.438;2023-08-08T10:32:21;7.80;;;4.97;;
19905;SDS011;10115;50.906;4.438;2023-08-08T10:34:46;4.57;;;4.30;;
19905;SDS011;10115;50.906;4.438;2023-08-08T10:37:13;5.83;;;4.23;;
19905;SDS011;10115;50.906;4.438;2023-08-08T10:39:59;4.27;;;4.07;;
19905;SDS011;10115;50.906;4.438;2023-08-08T10:42:26;4.00;;;3.80;;
19905;SDS011;10115;50.906;4.438;2023-08-08T10:44:57;4.90;;;4.67;;
19905;SDS011;10115;50.906;4.438;2023-08-08T10:47:25;4.57;;;4.17;;
19905;SDS011;10115;50.906;4.438;2023-08-08T10:55:56;4.47;;;4.20;;
19905;SDS011;10115;50.906;4.438;2023-08-08T10:58:10;4.40;;;4.20;;
19905;SDS011;10115;50.906;4.438;2023-08-08T11:00:44;4.77;;;4.37;;
19905;SDS011;10115;50.906;4.438;2023-08-08T11:03:10;4.83;;;4.53;;
19905;SDS011;10115;50.906;4.438;2023-08-08T11:05:36;5.97;;;4.50;;
19905;SDS011;10115;50.906;4.438;2023-08-08T11:08:04;4.70;;;4.40;;
19905;SDS011;10115;50.906;4.438;2023-08-08T11:10:37;4.13;;;3.93;;
19905;SDS011;10115;50.906;4.438;2023-08-08T11:13:05;10.17;;;4.47;;
19905;SDS011;10115;50.906;4.438;2023-08-08T11:15:33;4.50;;;4.23;;
19905;SDS011;10115;50.906;4.438;2023-08-08T11:18:00;5.17;;;4.77;;
19905;SDS011;10115;50.906;4.438;2023-08-08T11:20:29;4.80;;;4.40;;
19905;SDS011;10115;50.906;4.438;2023-08-08T11:22:56;4.60;;;4.40;;
19905;SDS011;10115;50.906;4.438;2023-08-08T11:25:24;5.30;;;4.83;;
19905;SDS011;10115;50.906;4.438;2023-08-08T11:27:51;8.83;;;5.63;;
19905;SDS011;10115;50.906;4.438;2023-08-08T11:30:19;4.50;;;4.10;;
19905;SDS011;10115;50.906;4.438;2023-08-08T11:32:46;5.47;;;4.97;;
19905;SDS011;10115;50.906;4.438;2023-08-08T11:35:17;4.83;;;4.53;;
19905;SDS011;10115;50.906;4.438;2023-08-08T11:37:46;4.67;;;4.27;;
19905;SDS011;10115;50.906;4.438;2023-08-08T11:40:13;4.57;;;3.97;;
19905;SDS011;10115;50.906;4.438;2023-08-08T11:42:39;4.20;;;3.90;;
19905;SDS011;10115;50.906;4.438;2023-08-08T11:45:07;4.23;;;4.03;;
19905;SDS011;10115;50.906;4.438;2023-08-08T11:47:34;4.20;;;4.00;;
19905;SDS011;10115;50.906;4.438;2023-08-08T11:50:02;4.90;;;3.97;;
19905;SDS011;10115;50.906;4.438;2023-08-08T11:52:29;4.47;;;4.27;;
19905;SDS011;10115;50.906;4.438;2023-08-08T11:54:55;4.83;;;4.10;;
19905;SDS011;10115;50.906;4.438;2023-08-08T11:57:23;4.33;;;4.13;;
19905;SDS011;10115;50.906;4.438;2023-08-08T11:59:48;6.80;;;4.07;;
19905;SDS011;10115;50.906;4.438;2023-08-08T12:02:14;5.27;;;3.90;;
19905;SDS011;10115;50.906;4.438;2023-08-08T12:04:47;4.00;;;3.80;;
19905;SDS011;10115;50.906;4.438;2023-08-08T12:07:13;6.63;;;4.30;;
19905;SDS011;10115;50.906;4.438;2023-08-08T12:09:38;5.00;;;4.63;;
19905;SDS011;10115;50.906;4.438;2023-08-08T12:12:05;5.70;;;4.20;;
19905;SDS011;10115;50.906;4.438;2023-08-08T12:14:37;4.07;;;3.87;;
19905;SDS011;10115;50.906;4.438;2023-08-08T12:17:03;3.97;;;3.80;;
19905;SDS011;10115;50.906;4.438;2023-08-08T12:19:29;5.03;;;4.07;;
19905;SDS011;10115;50.906;4.438;2023-08-08T12:21:55;4.43;;;4.20;;
19905;SDS011;10115;50.906;4.438;2023-08-08T12:24:21;4.70;;;4.40;;
19905;SDS011;10115;50.906;4.438;2023-08-08T12:26:46;5.17;;;4.67;;
19905;SDS011;10115;50.906;4.438;2023-08-08T12:29:13;3.83;;;3.63;;
19905;SDS011;10115;50.906;4.438;2023-08-08T12:31:38;4.17;;;3.97;;
19905;SDS011;10115;50.906;4.438;2023-08-08T12:34:04;4.40;;;4.20;;
19905;SDS011;10115;50.906;4.438;2023-08-08T12:36:30;6.63;;;3.77;;
19905;SDS011;10115;50.906;4.438;2023-08-08T12:38:56;3.90;;;3.70;;
19905;SDS011;10115;50.906;4.438;2023-08-08T12:41:22;4.33;;;3.80;;
19905;SDS011;10115;50.906;4.438;2023-08-08T12:43:49;5.20;;;4.00;;
19905;SDS011;10115;50.906;4.438;2023-08-08T12:46:16;4.83;;;4.60;;
19905;SDS011;10115;50.906;4.438;2023-08-08T12:48:41;3.67;;;3.57;;
19905;SDS011;10115;50.906;4.438;2023-08-08T12:51:09;3.90;;;3.60;;
19905;SDS011;10115;50.906;4.438;2023-08-08T12:53:34;4.37;;;4.07;;
19905;SDS011;10115;50.906;4.438;2023-08-08T12:56:00;11.93;;;3.90;;
19905;SDS011;10115;50.906;4.438;2023-08-08T12:58:26;4.53;;;4.13;;
19905;SDS011;10115;50.906;4.438;2023-08-08T13:00:52;3.87;;;3.67;;
19905;SDS011;10115;50.906;4.438;2023-08-08T13:03:18;4.03;;;3.70;;
19905;SDS011;10115;50.906;4.438;2023-08-08T13:05:43;4.33;;;3.97;;
19905;SDS011;10115;50.906;4.438;2023-08-08T13:08:09;4.23;;;3.87;;
19905;SDS011;10115;50.906;4.438;2023-08-08T13:10:35;4.20;;;3.80;;
19905;SDS011;10115;50.906;4.438;2023-08-08T13:13:01;4.10;;;3.90;;
19905;SDS011;10115;50.906;4.438;2023-08-08T13:15:27;5.07;;;4.20;;
19905;SDS011;10115;50.906;4.438;2023-08-08T13:17:53;5.13;;;4.33;;
19905;SDS011;10115;50.906;4.438;2023-08-08T13:20:18;4.13;;;4.00;;
19905;SDS011;10115;50.906;4.438;2023-08-08T13:22:44;4.57;;;4.00;;
19905;SDS011;10115;50.906;4.438;2023-08-08T13:25:10;4.20;;;3.80;;
19905;SDS011;10115;50.906;4.438;2023-08-08T13:27:36;4.50;;;4.20;;
19905;SDS011;10115;50.906;4.438;2023-08-08T13:30:02;4.83;;;4.50;;
19905;SDS011;10115;50.906;4.438;2023-08-08T13:32:29;4.70;;;4.50;;
19905;SDS011;10115;50.906;4.438;2023-08-08T13:34:54;4.07;;;3.77;;
19905;SDS011;10115;50.906;4.438;2023-08-08T13:37:20;4.63;;;4.33;;
19905;SDS011;10115;50.906;4.438;2023-08-08T13:39:45;5.13;;;4.50;;
19905;SDS011;10115;50.906;4.438;2023-08-08T13:42:11;4.50;;;4.20;;
19905;SDS011;10115;50.906;4.438;2023-08-08T13:44:37;4.50;;;4.30;;
19905;SDS011;10115;50.906;4.438;2023-08-08T13:47:02;3.73;;;3.63;;
19905;SDS011;10115;50.906;4.438;2023-08-08T13:49:28;7.90;;;4.80;;
19905;SDS011;10115;50.906;4.438;2023-08-08T13:51:54;4.93;;;4.40;;
19905;SDS011;10115;50.906;4.438;2023-08-08T13:54:20;5.17;;;4.70;;
19905;SDS011;10115;50.906;4.438;2023-08-08T13:56:46;6.27;;;5.20;;
19905;SDS011;10115;50.906;4.438;2023-08-08T13:59:12;3.80;;;3.60;;
19905;SDS011;10115;50.906;4.438;2023-08-08T14:01:37;3.60;;;3.50;;
19905;SDS011;10115;50.906;4.438;2023-08-08T14:04:03;4.20;;;4.00;;
19905;SDS011;10115;50.906;4.438;2023-08-08T14:06:29;4.37;;;4.17;;
19905;SDS011;10115;50.906;4.438;2023-08-08T14:08:55;4.13;;;3.83;;
19905;SDS011;10115;50.906;4.438;2023-08-08T14:11:21;3.57;;;3.47;;
19905;SDS011;10115;50.906;4.438;2023-08-08T14:13:47;3.97;;;3.77;;
19905;SDS011;10115;50.906;4.438;2023-08-08T14:16:13;4.10;;;3.90;;
19905;SDS011;10115;50.906;4.438;2023-08-08T14:18:38;4.17;;;3.90;;
19905;SDS011;10115;50.906;4.438;2023-08-08T14:21:04;3.93;;;3.73;;
19905;SDS011;10115;50.906;4.438;2023-08-08T14:23:30;4.40;;;4.10;;
19905;SDS011;10115;50.906;4.438;2023-08-08T14:25:56;4.90;;;4.57;;
19905;SDS011;10115;50.906;4.438;2023-08-08T14:28:22;4.43;;;4.13;;
19905;SDS011;10115;50.906;4.438;2023-08-08T14:30:48;4.30;;;4.10;;
19905;SDS011;10115;50.906;4.438;2023-08-08T14:33:14;3.57;;;3.40;;
19905;SDS011;10115;50.906;4.438;2023-08-08T14:35:41;4.87;;;4.47;;
19905;SDS011;10115;50.906;4.438;2023-08-08T14:38:07;4.37;;;4.17;;
19905;SDS011;10115;50.906;4.438;2023-08-08T14:40:32;4.53;;;4.23;;
19905;SDS011;10115;50.906;4.438;2023-08-08T14:42:59;5.13;;;4.47;;
19905;SDS011;10115;50.906;4.438;2023-08-08T14:45:26;3.93;;;3.73;;
19905;SDS011;10115;50.906;4.438;2023-08-08T14:47:52;4.17;;;3.77;;
19905;SDS011;10115;50.906;4.438;2023-08-08T14:50:18;4.13;;;3.83;;
19905;SDS011;10115;50.906;4.438;2023-08-08T14:52:44;4.17;;;3.97;;